sensor_id;sensor_type;location;lat;lon;timestamp;P1;durP1;ratioP1;P2;durP2;ratioP2
12990;SDS011;6560;57.692;11.958;2023-09-30T00:00:14;30.10;;;5.25;;
12990;SDS011;6560;57.692;11.958;2023-09-30T00:02:40;24.30;;;5.82;;
12990;SDS011;6560;57.692;11.958;2023-09-30T00:05:05;23.13;;;5.70;;
12990;SDS011;6560;57.692;11.958;2023-09-30T00:07:31;21.08;;;4.85;;
12990;SDS011;6560;57.692;11.958;2023-09-30T00:09:58;17.75;;;3.95;;
12990;SDS011;6560;57.692;11.958;2023-09-30T00:12:24;22.27;;;4.72;;
12990;SDS011;6560;57.692;11.958;2023-09-30T00:14:49;15.75;;;4.57;;
12990;SDS011;6560;57.692;11.958;2023-09-30T00:17:15;18.17;;;4.22;;
12990;SDS011;6560;57.692;11.958;2023-09-30T00:19:40;23.27;;;4.43;;
12990;SDS011;6560;57.692;11.958;2023-09-30T00:22:06;32.22;;;5.50;;
12990;SDS011;6560;57.692;11.958;2023-09-30T00:24:31;20.55;;;4.57;;
12990;SDS011;6560;57.692;11.958;2023-09-30T00:26:56;20.98;;;5.63;;
12990;SDS011;6560;57.692;11.958;2023-09-30T00:29:22;26.83;;;6.25;;
12990;SDS011;6560;57.692;11.958;2023-09-30T00:31:48;23.88;;;5.10;;
12990;SDS011;6560;57.692;11.958;2023-09-30T00:34:14;33.88;;;6.57;;
12990;SDS011;6560;57.692;11.958;2023-09-30T00:36:40;20.42;;;5.70;;
12990;SDS011;6560;57.692;11.958;2023-09-30T00:39:06;15.82;;;4.53;;
12990;SDS011;6560;57.692;11.958;2023-09-30T00:41:33;18.30;;;5.90;;
12990;SDS011;6560;57.692;11.958;2023-09-30T00:43:59;23.92;;;5.55;;
12990;SDS011;6560;57.692;11.958;2023-09-30T00:46:34;25.23;;;5.28;;
12990;SDS011;6560;57.692;11.958;2023-09-30T00:49:00;16.88;;;4.63;;
12990;SDS011;6560;57.692;11.958;2023-09-30T00:51:26;24.13;;;4.57;;
12990;SDS011;6560;57.692;11.958;2023-09-30T00:53:51;22.42;;;5.43;;
12990;SDS011;6560;57.692;11.958;2023-09-30T00:56:17;22.17;;;5.40;;
12990;SDS011;6560;57.692;11.958;2023-09-30T00:58:45;21.60;;;5.22;;
12990;SDS011;6560;57.692;11.958;2023-09-30T01:01:11;17.60;;;4.43;;
12990;SDS011;6560;57.692;11.958;2023-09-30T01:03:36;19.73;;;4.90;;
12990;SDS011;6560;57.692;11.958;2023-09-30T01:06:02;19.27;;;4.78;;
12990;SDS011;6560;57.692;11.958;2023-09-30T01:08:28;19.25;;;4.90;;
12990;SDS011;6560;57.692;11.958;2023-09-30T01:10:57;20.13;;;4.35;;
12990;SDS011;6560;57.692;11.958;2023-09-30T01:13:23;22.73;;;5.45;;
12990;SDS011;6560;57.692;11.958;2023-09-30T01:15:56;18.48;;;4.63;;
12990;SDS011;6560;57.692;11.958;2023-09-30T01:18:21;21.33;;;4.85;;
12990;SDS011;6560;57.692;11.958;2023-09-30T01:20:47;23.90;;;5.65;;
12990;SDS011;6560;57.692;11.958;2023-09-30T01:23:12;23.13;;;5.78;;
12990;SDS011;6560;57.692;11.958;2023-09-30T01:25:38;17.05;;;5.35;;
12990;SDS011;6560;57.692;11.958;2023-09-30T01:28:07;21.60;;;5.47;;
12990;SDS011;6560;57.692;11.958;2023-09-30T01:30:32;20.98;;;5.25;;
12990;SDS011;6560;57.692;11.958;2023-09-30T01:32:58;18.48;;;4.35;;
12990;SDS011;6560;57.692;11.958;2023-09-30T01:35:23;23.08;;;5.70;;
12990;SDS011;6560;57.692;11.958;2023-09-30T01:37:49;31.67;;;5.90;;
12990;SDS011;6560;57.692;11.958;2023-09-30T01:40:14;24.95;;;5.20;;
12990;SDS011;6560;57.692;11.958;2023-09-30T01:42:43;27.08;;;5.50;;
12990;SDS011;6560;57.692;11.958;2023-09-30T01:45:08;20.58;;;5.40;;
12990;SDS011;6560;57.692;11.958;2023-09-30T01:47:34;22.48;;;5.78;;
12990;SDS011;6560;57.692;11.958;2023-09-30T01:49:59;17.10;;;3.83;;
12990;SDS011;6560;57.692;11.958;2023-09-30T01:52:25;20.05;;;6.53;;
12990;SDS011;6560;57.692;11.958;2023-09-30T01:54:50;15.88;;;4.72;;
12990;SDS011;6560;57.692;11.958;2023-09-30T01:57:16;22.05;;;5.80;;
12990;SDS011;6560;57.692;11.958;2023-09-30T01:59:42;26.63;;;5.45;;
12990;SDS011;6560;57.692;11.958;2023-09-30T02:02:07;23.42;;;5.95;;
12990;SDS011;6560;57.692;11.958;2023-09-30T02:04:33;18.42;;;4.30;;
12990;SDS011;6560;57.692;11.958;2023-09-30T02:06:59;17.05;;;4.55;;
12990;SDS011;6560;57.692;11.958;2023-09-30T02:09:24;16.30;;;4.93;;
12990;SDS011;6560;57.692;11.958;2023-09-30T02:11:49;29.80;;;5.65;;
12990;SDS011;6560;57.692;11.958;2023-09-30T02:14:16;23.08;;;5.68;;
12990;SDS011;6560;57.692;11.958;2023-09-30T02:16:41;23.42;;;5.50;;
12990;SDS011;6560;57.692;11.958;2023-09-30T02:19:06;24.52;;;5.70;;
12990;SDS011;6560;57.692;11.958;2023-09-30T02:21:32;20.73;;;4.88;;
12990;SDS011;6560;57.692;11.958;2023-09-30T02:24:00;16.95;;;4.63;;
12990;SDS011;6560;57.692;11.958;2023-09-30T02:26:26;23.92;;;5.28;;
12990;SDS011;6560;57.692;11.958;2023-09-30T02:28:53;23.65;;;5.82;;
12990;SDS011;6560;57.692;11.958;2023-09-30T02:31:19;22.58;;;5.43;;
12990;SDS011;6560;57.692;11.958;2023-09-30T02:33:49;23.90;;;5.95;;
12990;SDS011;6560;57.692;11.958;2023-09-30T02:36:15;26.40;;;5.75;;
12990;SDS011;6560;57.692;11.958;2023-09-30T02:38:41;23.30;;;5.95;;
12990;SDS011;6560;57.692;11.958;2023-09-30T02:41:08;18.30;;;4.78;;
12990;SDS011;6560;57.692;11.958;2023-09-30T02:43:34;24.30;;;5.90;;
12990;SDS011;6560;57.692;11.958;2023-09-30T02:46:10;25.65;;;5.72;;
12990;SDS011;6560;57.692;11.958;2023-09-30T02:48:37;29.08;;;7.15;;
12990;SDS011;6560;57.692;11.958;2023-09-30T02:51:02;22.60;;;5.50;;
12990;SDS011;6560;57.692;11.958;2023-09-30T02:53:28;22.98;;;4.70;;
12990;SDS011;6560;57.692;11.958;2023-09-30T02:55:53;24.40;;;5.18;;
12990;SDS011;6560;57.692;11.958;2023-09-30T02:58:22;18.45;;;4.45;;
12990;SDS011;6560;57.692;11.958;2023-09-30T03:00:48;21.83;;;5.18;;
12990;SDS011;6560;57.692;11.958;2023-09-30T03:03:14;26.45;;;5.40;;
12990;SDS011;6560;57.692;11.958;2023-09-30T03:05:42;25.08;;;5.95;;
12990;SDS011;6560;57.692;11.958;2023-09-30T03:08:07;17.58;;;5.20;;
12990;SDS011;6560;57.692;11.958;2023-09-30T03:10:33;25.50;;;5.90;;
12990;SDS011;6560;57.692;11.958;2023-09-30T03:12:59;22.98;;;5.78;;
12990;SDS011;6560;57.692;11.958;2023-09-30T03:15:27;18.05;;;5.20;;
12990;SDS011;6560;57.692;11.958;2023-09-30T03:17:52;23.65;;;4.82;;
12990;SDS011;6560;57.692;11.958;2023-09-30T03:20:21;24.08;;;5.47;;
12990;SDS011;6560;57.692;11.958;2023-09-30T03:22:46;22.92;;;6.45;;
12990;SDS011;6560;57.692;11.958;2023-09-30T03:25:12;24.50;;;5.90;;
12990;SDS011;6560;57.692;11.958;2023-09-30T03:27:38;23.48;;;5.13;;
12990;SDS011;6560;57.692;11.958;2023-09-30T03:30:07;17.88;;;5.55;;
12990;SDS011;6560;57.692;11.958;2023-09-30T03:32:34;20.38;;;5.53;;
12990;SDS011;6560;57.692;11.958;2023-09-30T03:35:03;27.35;;;4.78;;
12990;SDS011;6560;57.692;11.958;2023-09-30T03:37:31;13.05;;;3.85;;
12990;SDS011;6560;57.692;11.958;2023-09-30T03:39:56;24.20;;;5.38;;
12990;SDS011;6560;57.692;11.958;2023-09-30T03:42:23;19.58;;;4.57;;
12990;SDS011;6560;57.692;11.958;2023-09-30T03:44:50;30.38;;;5.80;;
12990;SDS011;6560;57.692;11.958;2023-09-30T03:47:19;12.27;;;3.78;;
12990;SDS011;6560;57.692;11.958;2023-09-30T03:49:45;23.77;;;4.30;;
12990;SDS011;6560;57.692;11.958;2023-09-30T03:52:13;20.55;;;4.95;;
12990;SDS011;6560;57.692;11.958;2023-09-30T03:54:39;17.95;;;4.05;;
12990;SDS011;6560;57.692;11.958;2023-09-30T03:57:06;20.27;;;4.18;;
12990;SDS011;6560;57.692;11.958;2023-09-30T03:59:33;23.73;;;5.68;;
12990;SDS011;6560;57.692;11.958;2023-09-30T04:01:59;17.98;;;5.40;;
12990;SDS011;6560;57.692;11.958;2023-09-30T04:04:24;19.42;;;5.25;;
12990;SDS011;6560;57.692;11.958;2023-09-30T04:06:50;24.00;;;5.90;;
12990;SDS011;6560;57.692;11.958;2023-09-30T04:09:17;26.20;;;5.10;;
12990;SDS011;6560;57.692;11.958;2023-09-30T04:11:43;19.00;;;4.82;;
12990;SDS011;6560;57.692;11.958;2023-09-30T04:14:08;23.50;;;5.18;;
12990;SDS011;6560;57.692;11.958;2023-09-30T04:16:34;17.25;;;4.70;;
12990;SDS011;6560;57.692;11.958;2023-09-30T04:19:01;22.83;;;5.45;;
12990;SDS011;6560;57.692;11.958;2023-09-30T04:21:27;23.60;;;4.72;;
12990;SDS011;6560;57.692;11.958;2023-09-30T04:23:54;18.65;;;5.45;;
12990;SDS011;6560;57.692;11.958;2023-09-30T04:26:23;24.63;;;5.40;;
12990;SDS011;6560;57.692;11.958;2023-09-30T04:28:48;22.60;;;5.63;;
12990;SDS011;6560;57.692;11.958;2023-09-30T04:31:14;21.48;;;5.35;;
12990;SDS011;6560;57.692;11.958;2023-09-30T04:33:40;19.35;;;4.85;;
12990;SDS011;6560;57.692;11.958;2023-09-30T04:36:06;27.75;;;6.65;;
12990;SDS011;6560;57.692;11.958;2023-09-30T04:38:36;21.13;;;5.43;;
12990;SDS011;6560;57.692;11.958;2023-09-30T04:41:05;17.35;;;4.78;;
12990;SDS011;6560;57.692;11.958;2023-09-30T04:43:34;22.98;;;4.75;;
12990;SDS011;6560;57.692;11.958;2023-09-30T04:46:05;20.92;;;4.43;;
12990;SDS011;6560;57.692;11.958;2023-09-30T04:48:33;17.30;;;4.97;;
12990;SDS011;6560;57.692;11.958;2023-09-30T04:50:58;23.70;;;6.20;;
12990;SDS011;6560;57.692;11.958;2023-09-30T04:53:24;24.30;;;4.80;;
12990;SDS011;6560;57.692;11.958;2023-09-30T04:55:49;19.77;;;5.25;;
12990;SDS011;6560;57.692;11.958;2023-09-30T04:58:16;16.23;;;4.50;;
12990;SDS011;6560;57.692;11.958;2023-09-30T05:00:41;19.10;;;4.57;;
12990;SDS011;6560;57.692;11.958;2023-09-30T05:03:11;21.30;;;5.38;;
12990;SDS011;6560;57.692;11.958;2023-09-30T05:05:36;24.45;;;5.35;;
12990;SDS011;6560;57.692;11.958;2023-09-30T05:08:02;18.08;;;4.53;;
12990;SDS011;6560;57.692;11.958;2023-09-30T05:10:30;23.73;;;5.70;;
12990;SDS011;6560;57.692;11.958;2023-09-30T05:12:55;19.33;;;4.50;;
12990;SDS011;6560;57.692;11.958;2023-09-30T05:15:21;17.75;;;4.95;;
12990;SDS011;6560;57.692;11.958;2023-09-30T05:17:46;19.65;;;4.50;;
12990;SDS011;6560;57.692;11.958;2023-09-30T05:20:18;19.13;;;4.78;;
12990;SDS011;6560;57.692;11.958;2023-09-30T05:22:48;19.27;;;4.32;;
12990;SDS011;6560;57.692;11.958;2023-09-30T05:25:14;20.23;;;4.78;;
12990;SDS011;6560;57.692;11.958;2023-09-30T05:27:43;23.30;;;4.75;;
12990;SDS011;6560;57.692;11.958;2023-09-30T05:30:09;23.15;;;5.50;;
12990;SDS011;6560;57.692;11.958;2023-09-30T05:32:36;18.23;;;4.20;;
12990;SDS011;6560;57.692;11.958;2023-09-30T05:35:07;24.90;;;4.88;;
12990;SDS011;6560;57.692;11.958;2023-09-30T05:37:41;21.95;;;4.57;;
12990;SDS011;6560;57.692;11.958;2023-09-30T05:40:10;17.50;;;4.68;;
12990;SDS011;6560;57.692;11.958;2023-09-30T05:42:47;22.95;;;5.20;;
12990;SDS011;6560;57.692;11.958;2023-09-30T05:45:13;18.52;;;4.35;;
12990;SDS011;6560;57.692;11.958;2023-09-30T05:47:38;18.67;;;3.72;;
12990;SDS011;6560;57.692;11.958;2023-09-30T05:50:05;13.70;;;3.63;;
12990;SDS011;6560;57.692;11.958;2023-09-30T05:52:32;17.10;;;3.47;;
12990;SDS011;6560;57.692;11.958;2023-09-30T05:54:58;11.73;;;2.97;;
12990;SDS011;6560;57.692;11.958;2023-09-30T05:57:25;19.25;;;3.50;;
12990;SDS011;6560;57.692;11.958;2023-09-30T05:59:54;10.82;;;3.75;;
12990;SDS011;6560;57.692;11.958;2023-09-30T06:02:23;14.80;;;3.08;;
12990;SDS011;6560;57.692;11.958;2023-09-30T06:04:50;9.20;;;2.58;;
12990;SDS011;6560;57.692;11.958;2023-09-30T06:07:18;17.02;;;3.92;;
12990;SDS011;6560;57.692;11.958;2023-09-30T06:09:45;21.70;;;3.90;;
12990;SDS011;6560;57.692;11.958;2023-09-30T06:12:13;17.65;;;3.60;;
12990;SDS011;6560;57.692;11.958;2023-09-30T06:14:38;9.88;;;2.88;;
12990;SDS011;6560;57.692;11.958;2023-09-30T06:17:05;16.98;;;3.47;;
12990;SDS011;6560;57.692;11.958;2023-09-30T06:19:31;13.95;;;3.45;;
12990;SDS011;6560;57.692;11.958;2023-09-30T06:21:56;13.95;;;3.63;;
12990;SDS011;6560;57.692;11.958;2023-09-30T06:24:21;11.20;;;2.83;;
12990;SDS011;6560;57.692;11.958;2023-09-30T06:26:47;14.02;;;2.55;;
12990;SDS011;6560;57.692;11.958;2023-09-30T06:29:14;10.82;;;2.95;;
12990;SDS011;6560;57.692;11.958;2023-09-30T06:31:39;21.13;;;3.47;;
12990;SDS011;6560;57.692;11.958;2023-09-30T06:34:07;11.55;;;2.88;;
12990;SDS011;6560;57.692;11.958;2023-09-30T06:36:36;12.45;;;2.75;;
12990;SDS011;6560;57.692;11.958;2023-09-30T06:39:03;15.27;;;3.15;;
12990;SDS011;6560;57.692;11.958;2023-09-30T06:41:32;11.88;;;2.40;;
12990;SDS011;6560;57.692;11.958;2023-09-30T06:43:58;16.85;;;3.20;;
12990;SDS011;6560;57.692;11.958;2023-09-30T06:46:24;9.27;;;2.38;;
12990;SDS011;6560;57.692;11.958;2023-09-30T06:48:50;7.80;;;2.15;;
12990;SDS011;6560;57.692;11.958;2023-09-30T06:51:18;9.65;;;2.20;;
12990;SDS011;6560;57.692;11.958;2023-09-30T06:53:44;9.20;;;2.20;;
12990;SDS011;6560;57.692;11.958;2023-09-30T06:56:10;8.73;;;2.08;;
12990;SDS011;6560;57.692;11.958;2023-09-30T06:58:37;10.40;;;2.40;;
12990;SDS011;6560;57.692;11.958;2023-09-30T07:01:23;14.70;;;3.17;;
12990;SDS011;6560;57.692;11.958;2023-09-30T07:03:48;12.35;;;2.78;;
12990;SDS011;6560;57.692;11.958;2023-09-30T07:06:21;11.15;;;2.67;;
12990;SDS011;6560;57.692;11.958;2023-09-30T07:08:47;9.73;;;2.35;;
12990;SDS011;6560;57.692;11.958;2023-09-30T07:11:13;13.85;;;2.92;;
12990;SDS011;6560;57.692;11.958;2023-09-30T07:13:38;11.27;;;2.80;;
12990;SDS011;6560;57.692;11.958;2023-09-30T07:16:04;14.50;;;3.10;;
12990;SDS011;6560;57.692;11.958;2023-09-30T07:18:30;17.25;;;3.42;;
12990;SDS011;6560;57.692;11.958;2023-09-30T07:20:56;25.40;;;4.10;;
12990;SDS011;6560;57.692;11.958;2023-09-30T07:23:23;12.18;;;2.38;;
12990;SDS011;6560;57.692;11.958;2023-09-30T07:25:48;14.15;;;2.88;;
12990;SDS011;6560;57.692;11.958;2023-09-30T07:28:13;16.50;;;3.05;;
12990;SDS011;6560;57.692;11.958;2023-09-30T07:30:39;14.82;;;3.50;;
12990;SDS011;6560;57.692;11.958;2023-09-30T07:33:05;7.85;;;2.35;;
12990;SDS011;6560;57.692;11.958;2023-09-30T07:35:31;14.77;;;3.40;;
12990;SDS011;6560;57.692;11.958;2023-09-30T07:37:58;10.32;;;2.97;;
12990;SDS011;6560;57.692;11.958;2023-09-30T07:40:23;12.10;;;2.78;;
12990;SDS011;6560;57.692;11.958;2023-09-30T07:42:49;15.55;;;3.15;;
12990;SDS011;6560;57.692;11.958;2023-09-30T07:45:15;11.43;;;1.95;;
12990;SDS011;6560;57.692;11.958;2023-09-30T07:47:43;10.40;;;1.85;;
12990;SDS011;6560;57.692;11.958;2023-09-30T07:50:08;11.32;;;2.15;;
12990;SDS011;6560;57.692;11.958;2023-09-30T07:52:35;15.43;;;3.15;;
12990;SDS011;6560;57.692;11.958;2023-09-30T07:55:02;6.28;;;2.00;;
12990;SDS011;6560;57.692;11.958;2023-09-30T07:57:30;6.45;;;2.30;;
12990;SDS011;6560;57.692;11.958;2023-09-30T07:59:56;11.18;;;3.17;;
12990;SDS011;6560;57.692;11.958;2023-09-30T08:02:21;6.80;;;1.83;;
12990;SDS011;6560;57.692;11.958;2023-09-30T08:04:47;6.95;;;2.15;;
12990;SDS011;6560;57.692;11.958;2023-09-30T08:07:13;8.15;;;2.38;;
12990;SDS011;6560;57.692;11.958;2023-09-30T08:09:38;10.18;;;2.40;;
12990;SDS011;6560;57.692;11.958;2023-09-30T08:12:04;9.45;;;2.05;;
12990;SDS011;6560;57.692;11.958;2023-09-30T08:14:29;11.77;;;2.92;;
12990;SDS011;6560;57.692;11.958;2023-09-30T08:17:01;11.38;;;2.60;;
12990;SDS011;6560;57.692;11.958;2023-09-30T08:19:27;15.65;;;3.13;;
12990;SDS011;6560;57.692;11.958;2023-09-30T08:21:53;9.18;;;2.95;;
12990;SDS011;6560;57.692;11.958;2023-09-30T08:24:19;15.70;;;3.88;;
12990;SDS011;6560;57.692;11.958;2023-09-30T08:26:44;12.57;;;2.70;;
12990;SDS011;6560;57.692;11.958;2023-09-30T08:29:11;16.23;;;3.72;;
12990;SDS011;6560;57.692;11.958;2023-09-30T08:31:36;9.35;;;3.28;;
12990;SDS011;6560;57.692;11.958;2023-09-30T08:34:02;14.32;;;3.47;;
12990;SDS011;6560;57.692;11.958;2023-09-30T08:36:29;14.15;;;3.53;;
12990;SDS011;6560;57.692;11.958;2023-09-30T08:38:55;10.48;;;3.00;;
12990;SDS011;6560;57.692;11.958;2023-09-30T08:41:30;18.10;;;4.45;;
12990;SDS011;6560;57.692;11.958;2023-09-30T08:43:59;15.95;;;4.15;;
12990;SDS011;6560;57.692;11.958;2023-09-30T08:46:25;13.80;;;3.78;;
12990;SDS011;6560;57.692;11.958;2023-09-30T08:48:51;18.67;;;4.60;;
12990;SDS011;6560;57.692;11.958;2023-09-30T08:51:18;14.95;;;4.03;;
12990;SDS011;6560;57.692;11.958;2023-09-30T08:53:46;11.55;;;3.00;;
12990;SDS011;6560;57.692;11.958;2023-09-30T08:56:12;13.65;;;2.75;;
12990;SDS011;6560;57.692;11.958;2023-09-30T08:58:43;11.02;;;2.30;;
12990;SDS011;6560;57.692;11.958;2023-09-30T09:01:10;12.82;;;3.30;;
12990;SDS011;6560;57.692;11.958;2023-09-30T09:03:35;16.00;;;3.25;;
12990;SDS011;6560;57.692;11.958;2023-09-30T09:06:24;11.82;;;3.10;;
12990;SDS011;6560;57.692;11.958;2023-09-30T09:08:50;11.55;;;3.03;;
12990;SDS011;6560;57.692;11.958;2023-09-30T09:11:17;6.03;;;2.83;;
12990;SDS011;6560;57.692;11.958;2023-09-30T09:13:49;9.98;;;2.80;;
12990;SDS011;6560;57.692;11.958;2023-09-30T09:16:16;8.30;;;2.88;;
12990;SDS011;6560;57.692;11.958;2023-09-30T09:18:43;13.73;;;3.53;;
12990;SDS011;6560;57.692;11.958;2023-09-30T09:21:12;14.40;;;2.78;;
12990;SDS011;6560;57.692;11.958;2023-09-30T09:23:39;8.05;;;2.70;;
12990;SDS011;6560;57.692;11.958;2023-09-30T09:26:04;10.18;;;2.63;;
12990;SDS011;6560;57.692;11.958;2023-09-30T09:28:34;8.90;;;2.90;;
12990;SDS011;6560;57.692;11.958;2023-09-30T09:31:01;11.57;;;3.08;;
12990;SDS011;6560;57.692;11.958;2023-09-30T09:33:35;12.32;;;2.78;;
12990;SDS011;6560;57.692;11.958;2023-09-30T09:36:03;13.57;;;3.42;;
12990;SDS011;6560;57.692;11.958;2023-09-30T09:38:43;11.60;;;3.42;;
12990;SDS011;6560;57.692;11.958;2023-09-30T09:41:08;17.13;;;3.28;;
12990;SDS011;6560;57.692;11.958;2023-09-30T09:43:36;19.77;;;4.78;;
12990;SDS011;6560;57.692;11.958;2023-09-30T09:46:02;13.15;;;2.85;;
12990;SDS011;6560;57.692;11.958;2023-09-30T09:48:29;11.25;;;3.35;;
12990;SDS011;6560;57.692;11.958;2023-09-30T09:50:54;17.58;;;3.60;;
12990;SDS011;6560;57.692;11.958;2023-09-30T09:53:20;15.13;;;3.80;;
12990;SDS011;6560;57.692;11.958;2023-09-30T09:55:46;15.13;;;3.60;;
12990;SDS011;6560;57.692;11.958;2023-09-30T09:58:12;15.40;;;3.88;;
12990;SDS011;6560;57.692;11.958;2023-09-30T10:00:39;13.85;;;3.58;;
12990;SDS011;6560;57.692;11.958;2023-09-30T10:03:06;16.60;;;4.78;;
12990;SDS011;6560;57.692;11.958;2023-09-30T10:05:31;15.90;;;4.10;;
12990;SDS011;6560;57.692;11.958;2023-09-30T10:08:01;22.27;;;4.88;;
12990;SDS011;6560;57.692;11.958;2023-09-30T10:10:27;17.30;;;4.72;;
12990;SDS011;6560;57.692;11.958;2023-09-30T10:12:54;16.42;;;4.50;;
12990;SDS011;6560;57.692;11.958;2023-09-30T10:18:09;11.35;;;3.47;;
12990;SDS011;6560;57.692;11.958;2023-09-30T10:20:35;14.77;;;3.58;;
12990;SDS011;6560;57.692;11.958;2023-09-30T10:25:48;11.50;;;3.40;;
12990;SDS011;6560;57.692;11.958;2023-09-30T10:28:33;18.75;;;4.57;;
12990;SDS011;6560;57.692;11.958;2023-09-30T10:31:10;15.70;;;4.55;;
12990;SDS011;6560;57.692;11.958;2023-09-30T10:33:53;12.88;;;4.22;;
12990;SDS011;6560;57.692;11.958;2023-09-30T10:36:26;15.27;;;4.53;;
12990;SDS011;6560;57.692;11.958;2023-09-30T10:38:51;19.05;;;4.07;;
12990;SDS011;6560;57.692;11.958;2023-09-30T10:41:49;16.08;;;3.70;;
12990;SDS011;6560;57.692;11.958;2023-09-30T10:46:47;15.18;;;4.18;;
12990;SDS011;6560;57.692;11.958;2023-09-30T10:49:16;14.60;;;4.25;;
12990;SDS011;6560;57.692;11.958;2023-09-30T10:51:45;12.50;;;4.05;;
12990;SDS011;6560;57.692;11.958;2023-09-30T10:54:12;17.17;;;4.65;;
12990;SDS011;6560;57.692;11.958;2023-09-30T10:56:38;19.10;;;5.88;;
12990;SDS011;6560;57.692;11.958;2023-09-30T10:59:03;12.90;;;4.25;;
12990;SDS011;6560;57.692;11.958;2023-09-30T11:01:33;14.88;;;5.10;;
12990;SDS011;6560;57.692;11.958;2023-09-30T11:04:02;15.80;;;4.50;;
12990;SDS011;6560;57.692;11.958;2023-09-30T11:06:30;13.38;;;4.60;;
12990;SDS011;6560;57.692;11.958;2023-09-30T11:08:59;12.25;;;4.30;;
12990;SDS011;6560;57.692;11.958;2023-09-30T11:11:33;15.32;;;4.18;;
12990;SDS011;6560;57.692;11.958;2023-09-30T11:13:59;11.57;;;3.85;;
12990;SDS011;6560;57.692;11.958;2023-09-30T11:16:24;17.42;;;4.93;;
12990;SDS011;6560;57.692;11.958;2023-09-30T11:18:55;18.08;;;4.70;;
12990;SDS011;6560;57.692;11.958;2023-09-30T11:21:22;17.00;;;4.45;;
12990;SDS011;6560;57.692;11.958;2023-09-30T11:23:47;11.00;;;3.78;;
12990;SDS011;6560;57.692;11.958;2023-09-30T11:26:12;11.85;;;3.28;;
12990;SDS011;6560;57.692;11.958;2023-09-30T11:28:40;10.73;;;3.22;;
12990;SDS011;6560;57.692;11.958;2023-09-30T11:31:07;8.15;;;2.65;;
12990;SDS011;6560;57.692;11.958;2023-09-30T11:33:51;10.77;;;2.90;;
12990;SDS011;6560;57.692;11.958;2023-09-30T11:36:18;10.27;;;3.17;;
12990;SDS011;6560;57.692;11.958;2023-09-30T11:38:44;10.75;;;2.95;;
12990;SDS011;6560;57.692;11.958;2023-09-30T11:41:10;10.57;;;3.38;;
12990;SDS011;6560;57.692;11.958;2023-09-30T11:43:36;12.43;;;3.35;;
12990;SDS011;6560;57.692;11.958;2023-09-30T11:46:10;16.55;;;4.55;;
12990;SDS011;6560;57.692;11.958;2023-09-30T11:48:38;15.43;;;3.83;;
12990;SDS011;6560;57.692;11.958;2023-09-30T11:51:03;14.15;;;3.75;;
12990;SDS011;6560;57.692;11.958;2023-09-30T11:53:34;13.65;;;3.97;;
12990;SDS011;6560;57.692;11.958;2023-09-30T11:56:00;11.20;;;3.45;;
12990;SDS011;6560;57.692;11.958;2023-09-30T11:58:28;12.48;;;3.28;;
12990;SDS011;6560;57.692;11.958;2023-09-30T12:00:54;11.65;;;3.75;;
12990;SDS011;6560;57.692;11.958;2023-09-30T12:03:20;15.07;;;3.65;;
12990;SDS011;6560;57.692;11.958;2023-09-30T12:05:46;9.23;;;3.80;;
12990;SDS011;6560;57.692;11.958;2023-09-30T12:08:13;15.32;;;4.18;;
12990;SDS011;6560;57.692;11.958;2023-09-30T12:10:39;11.93;;;3.63;;
12990;SDS011;6560;57.692;11.958;2023-09-30T12:13:05;10.88;;;4.05;;
12990;SDS011;6560;57.692;11.958;2023-09-30T12:15:30;15.60;;;4.20;;
12990;SDS011;6560;57.692;11.958;2023-09-30T12:17:56;10.77;;;3.78;;
12990;SDS011;6560;57.692;11.958;2023-09-30T12:20:21;19.88;;;5.18;;
12990;SDS011;6560;57.692;11.958;2023-09-30T12:22:46;11.63;;;4.47;;
12990;SDS011;6560;57.692;11.958;2023-09-30T12:25:12;15.52;;;4.85;;
12990;SDS011;6560;57.692;11.958;2023-09-30T12:27:37;14.48;;;4.20;;
12990;SDS011;6560;57.692;11.958;2023-09-30T12:30:05;18.40;;;4.70;;
12990;SDS011;6560;57.692;11.958;2023-09-30T12:32:34;14.93;;;4.60;;
12990;SDS011;6560;57.692;11.958;2023-09-30T12:35:00;14.65;;;4.85;;
12990;SDS011;6560;57.692;11.958;2023-09-30T12:37:26;14.52;;;5.00;;
12990;SDS011;6560;57.692;11.958;2023-09-30T12:39:52;15.60;;;3.65;;
12990;SDS011;6560;57.692;11.958;2023-09-30T12:42:19;11.57;;;3.85;;
12990;SDS011;6560;57.692;11.958;2023-09-30T12:44:44;15.23;;;5.13;;
12990;SDS011;6560;57.692;11.958;2023-09-30T12:47:10;14.10;;;3.70;;
12990;SDS011;6560;57.692;11.958;2023-09-30T12:49:35;15.02;;;4.65;;
12990;SDS011;6560;57.692;11.958;2023-09-30T12:52:00;15.43;;;4.13;;
12990;SDS011;6560;57.692;11.958;2023-09-30T12:54:26;16.10;;;4.40;;
12990;SDS011;6560;57.692;11.958;2023-09-30T12:56:51;14.23;;;4.32;;
12990;SDS011;6560;57.692;11.958;2023-09-30T12:59:18;15.02;;;4.70;;
12990;SDS011;6560;57.692;11.958;2023-09-30T13:02:13;16.30;;;4.18;;
12990;SDS011;6560;57.692;11.958;2023-09-30T13:04:39;16.65;;;4.22;;
12990;SDS011;6560;57.692;11.958;2023-09-30T13:07:08;8.90;;;2.92;;
12990;SDS011;6560;57.692;11.958;2023-09-30T13:09:33;13.93;;;3.95;;
12990;SDS011;6560;57.692;11.958;2023-09-30T13:11:59;15.10;;;3.97;;
12990;SDS011;6560;57.692;11.958;2023-09-30T13:14:25;12.93;;;3.65;;
12990;SDS011;6560;57.692;11.958;2023-09-30T13:16:53;17.80;;;4.47;;
12990;SDS011;6560;57.692;11.958;2023-09-30T13:19:19;17.45;;;4.68;;
12990;SDS011;6560;57.692;11.958;2023-09-30T13:21:48;13.98;;;4.72;;
12990;SDS011;6560;57.692;11.958;2023-09-30T13:24:14;18.13;;;4.70;;
12990;SDS011;6560;57.692;11.958;2023-09-30T13:26:40;11.80;;;3.05;;
12990;SDS011;6560;57.692;11.958;2023-09-30T13:29:08;10.82;;;3.90;;
12990;SDS011;6560;57.692;11.958;2023-09-30T13:31:38;16.52;;;4.35;;
12990;SDS011;6560;57.692;11.958;2023-09-30T13:34:04;16.35;;;4.50;;
12990;SDS011;6560;57.692;11.958;2023-09-30T13:36:29;19.77;;;4.82;;
12990;SDS011;6560;57.692;11.958;2023-09-30T13:38:55;16.17;;;4.45;;
12990;SDS011;6560;57.692;11.958;2023-09-30T13:41:21;9.93;;;3.92;;
12990;SDS011;6560;57.692;11.958;2023-09-30T13:43:46;15.23;;;4.35;;
12990;SDS011;6560;57.692;11.958;2023-09-30T13:46:15;20.30;;;3.67;;
12990;SDS011;6560;57.692;11.958;2023-09-30T13:48:41;12.10;;;4.72;;
12990;SDS011;6560;57.692;11.958;2023-09-30T13:51:06;15.85;;;3.85;;
12990;SDS011;6560;57.692;11.958;2023-09-30T13:53:32;14.05;;;4.25;;
12990;SDS011;6560;57.692;11.958;2023-09-30T13:55:57;14.57;;;3.63;;
12990;SDS011;6560;57.692;11.958;2023-09-30T13:58:22;11.18;;;3.67;;
12990;SDS011;6560;57.692;11.958;2023-09-30T14:00:48;10.23;;;3.28;;
12990;SDS011;6560;57.692;11.958;2023-09-30T14:03:13;10.20;;;3.60;;
12990;SDS011;6560;57.692;11.958;2023-09-30T14:05:39;12.27;;;3.30;;
12990;SDS011;6560;57.692;11.958;2023-09-30T14:08:05;9.50;;;3.25;;
12990;SDS011;6560;57.692;11.958;2023-09-30T14:10:32;10.38;;;3.80;;
12990;SDS011;6560;57.692;11.958;2023-09-30T14:12:59;10.85;;;3.10;;
12990;SDS011;6560;57.692;11.958;2023-09-30T14:15:27;16.17;;;4.22;;
12990;SDS011;6560;57.692;11.958;2023-09-30T14:17:53;17.58;;;4.93;;
12990;SDS011;6560;57.692;11.958;2023-09-30T14:20:20;12.13;;;3.58;;
12990;SDS011;6560;57.692;11.958;2023-09-30T14:22:48;20.63;;;4.80;;
12990;SDS011;6560;57.692;11.958;2023-09-30T14:25:17;20.02;;;4.30;;
12990;SDS011;6560;57.692;11.958;2023-09-30T14:27:42;9.70;;;3.15;;
12990;SDS011;6560;57.692;11.958;2023-09-30T14:30:08;14.75;;;3.45;;
12990;SDS011;6560;57.692;11.958;2023-09-30T14:32:33;14.10;;;3.00;;
12990;SDS011;6560;57.692;11.958;2023-09-30T14:34:59;8.52;;;3.33;;
12990;SDS011;6560;57.692;11.958;2023-09-30T14:37:24;9.05;;;2.95;;
12990;SDS011;6560;57.692;11.958;2023-09-30T14:39:49;13.73;;;3.92;;
12990;SDS011;6560;57.692;11.958;2023-09-30T14:42:15;16.02;;;4.03;;